Smoketown, Pennsylvania
Current Conditions -  °F | °C
As of 1:53 PM on Thursday 30 Oct 2014 (Local Time) from KLNS Reporting Station
Overcast Overcast  
Wind Chill: 54°   Ceiling: 6000
Heat Index: 54°   Visibility: 10mi
Dew Point: 37°   Wind: 7mph
Humidity: 53%   Direction: 320°NW
Pressure: 30.02"   Gusts: NA
Location:  40.03°N, 76.19°W
Report Text: KLNS 301753Z 32006KT 10SM OVC060 12/03 A3002 RMK AO2 SLP166 T01220028 10128 20039 58009
Loading
Personal Weather Stations






























Interactive Weather Map
Tropical Storm Tracking
New forecast layout! Learn more

10-Day Weather Forecast

Advertisements
Track Severe Weather on mobile